Time;durP1;ratioP1;P1;durP2;ratioP2;P2;SDS_P1;SDS_P2;PMS_P1;PMS_P2;Temp;Humidity;BMP_temperature;BMP_pressure;BME280_temperature;BME280_humidity;BME280_pressure;Samples;Min_cycle;Max_cycle;Signal;HPM_P1;HPM_P2
2021/07/09 00:01:25;;;;;;;;;;;;;;;18.50;78.31;100906.52;1614946;87;20255;-81
2021/07/09 00:03:51;;;;;;;;;;;;;;;18.49;78.35;100874.70;1615919;88;20176;-81
2021/07/09 00:06:20;;;;;;;;;;;;;;;18.46;78.11;100856.50;1614787;88;20156;-82
2021/07/09 00:08:45;;;;;;;;;;;;;;;18.43;78.03;100845.31;1593762;88;20216;-82
2021/07/09 00:11:12;;;;;;;;;;;;;;;18.41;78.02;100836.22;1615871;86;20633;-82
2021/07/09 00:13:38;;;;;;;;;;;;;;;18.39;78.46;100837.20;1615068;87;20266;-82
2021/07/09 00:16:05;;;;;;;;;;;;;;;18.41;78.55;100847.16;1605909;88;20189;-82
2021/07/09 00:18:31;;;;;;;;;;;;;;;18.41;78.58;100861.09;1587356;88;20302;-82
2021/07/09 00:20:57;;;;;;;;;;;;;;;18.43;78.56;100882.83;1602834;88;20875;-81
2021/07/09 00:23:23;;;;;;;;;;;;;;;18.45;78.43;100901.94;1606689;88;20206;-82
2021/07/09 00:25:49;;;;;;;;;;;;;;;18.48;78.54;100917.98;1604672;88;20106;-82
2021/07/09 00:28:15;;;;;;;;;;;;;;;18.50;78.55;100928.78;1604229;88;20359;-82
2021/07/09 00:30:41;;;;;;;;;;;;;;;18.54;78.50;100930.80;1570933;89;20106;-82
2021/07/09 00:33:08;;;;;;;;;;;;;;;18.55;78.44;100927.73;1608353;88;20106;-82
2021/07/09 00:35:33;;;;;;;;;;;;;;;18.57;78.45;100918.88;1594454;88;20168;-82
2021/07/09 00:37:59;;;;;;;;;;;;;;;18.59;78.56;100926.22;1604466;88;20177;-82
2021/07/09 00:40:40;;;;;;;;;;;;;;;18.62;78.53;100933.97;1603984;88;20122;-82
2021/07/09 00:43:06;;;;;;;;;;;;;;;18.58;78.39;100948.09;1604997;88;20134;-82
2021/07/09 00:45:32;;;;;;;;;;;;;;;18.61;78.53;100956.30;1603823;88;20114;-82
2021/07/09 00:47:58;;;;;;;;;;;;;;;18.61;78.48;100948.44;1604327;88;20816;-82
2021/07/09 00:50:24;;;;;;;;;;;;;;;18.59;78.46;100952.41;1604162;88;20888;-82
2021/07/09 00:52:50;;;;;;;;;;;;;;;18.63;78.58;100959.70;1608511;88;20154;-82
2021/07/09 00:55:18;;;;;;;;;;;;;;;18.68;78.65;100969.06;1610506;88;20112;-82
2021/07/09 00:57:46;;;;;;;;;;;;;;;18.72;78.61;100985.01;1617827;88;20126;-82
2021/07/09 01:00:13;;;;;;;;;;;;;;;18.75;78.57;100977.47;1603268;88;20131;-82
2021/07/09 01:02:40;;;;;;;;;;;;;;;18.77;78.57;100967.78;1604197;88;20143;-82
2021/07/09 01:05:08;;;;;;;;;;;;;;;18.78;78.56;100966.40;1604469;88;20110;-82
2021/07/09 01:07:35;;;;;;;;;;;;;;;18.81;78.58;100964.95;1604256;88;20114;-82
2021/07/09 01:10:04;;;;;;;;;;;;;;;18.84;78.56;100960.89;1601949;88;20173;-82
2021/07/09 01:12:29;;;;;;;;;;;;;;;18.82;78.50;100956.63;1602515;88;20193;-82
2021/07/09 01:14:56;;;;;;;;;;;;;;;18.84;78.54;100958.27;1601890;88;20193;-82
2021/07/09 01:17:22;;;;;;;;;;;;;;;18.85;78.59;100966.52;1602696;88;20224;-82
2021/07/09 01:19:48;;;;;;;;;;;;;;;18.89;78.58;100979.48;1602104;88;20145;-82
2021/07/09 01:22:14;;;;;;;;;;;;;;;18.85;78.52;100974.84;1608770;88;20189;-82
2021/07/09 01:24:41;;;;;;;;;;;;;;;18.87;78.61;100976.08;1602361;88;20193;-82
2021/07/09 01:27:07;;;;;;;;;;;;;;;18.88;78.59;100988.27;1602461;88;20507;-82
2021/07/09 01:29:33;;;;;;;;;;;;;;;18.86;78.51;100993.58;1599478;88;20246;-82
2021/07/09 01:31:59;;;;;;;;;;;;;;;18.86;78.49;100998.81;1602852;88;20174;-82
2021/07/09 01:34:25;;;;;;;;;;;;;;;18.87;78.63;100990.50;1605656;88;20160;-82
2021/07/09 01:36:52;;;;;;;;;;;;;;;18.89;78.66;100994.75;1604128;88;20146;-82
2021/07/09 01:39:18;;;;;;;;;;;;;;;18.91;78.67;100999.92;1602920;88;20595;-82
2021/07/09 01:41:44;;;;;;;;;;;;;;;18.93;78.68;101008.11;1603409;88;20180;-82
2021/07/09 01:44:17;;;;;;;;;;;;;;;18.92;78.56;101010.80;1602943;88;20106;-83
2021/07/09 01:46:43;;;;;;;;;;;;;;;18.91;78.68;101016.50;1602934;88;20281;-83
2021/07/09 01:49:09;;;;;;;;;;;;;;;18.93;78.62;101025.60;1606611;88;20134;-83
2021/07/09 01:51:35;;;;;;;;;;;;;;;18.92;78.70;101031.77;1613049;88;20190;-82
2021/07/09 01:54:02;;;;;;;;;;;;;;;18.94;78.75;101033.40;1602738;88;20166;-83
2021/07/09 01:56:28;;;;;;;;;;;;;;;18.93;78.69;101022.52;1603038;88;20577;-83
2021/07/09 01:59:01;;;;;;;;;;;;;;;18.93;78.67;101008.11;1611218;88;20553;-83
2021/07/09 02:01:27;;;;;;;;;;;;;;;18.93;78.72;101005.95;1601954;88;20210;-83
2021/07/09 02:03:54;;;;;;;;;;;;;;;18.93;78.78;101004.64;1602474;88;20162;-83
2021/07/09 02:06:20;;;;;;;;;;;;;;;18.96;78.88;101005.36;1602355;88;20213;-83
2021/07/09 02:08:46;;;;;;;;;;;;;;;18.98;78.86;100994.34;1602086;88;20142;-83
2021/07/09 02:11:12;;;;;;;;;;;;;;;19.01;78.87;100986.34;1602025;88;20213;-83
2021/07/09 02:13:38;;;;;;;;;;;;;;;19.04;78.88;100990.59;1603305;88;20548;-83
2021/07/09 02:16:05;;;;;;;;;;;;;;;19.03;78.73;100990.20;1602239;87;20209;-82
2021/07/09 02:18:31;;;;;;;;;;;;;;;19.00;78.79;100991.19;1615570;88;20343;-82
2021/07/09 02:20:58;;;;;;;;;;;;;;;18.96;78.75;100988.32;1602073;88;20200;-82
2021/07/09 02:23:24;;;;;;;;;;;;;;;18.91;78.60;100992.91;1603958;88;20174;-82
2021/07/09 02:25:50;;;;;;;;;;;;;;;18.85;78.78;100990.11;1601802;88;20616;-82
2021/07/09 02:28:16;;;;;;;;;;;;;;;18.85;78.83;100988.80;1599083;88;20214;-82
2021/07/09 02:30:42;;;;;;;;;;;;;;;18.83;78.80;100985.84;1602015;88;20330;-82
2021/07/09 02:33:09;;;;;;;;;;;;;;;18.78;78.81;100982.58;1606873;88;20129;-82
2021/07/09 02:35:39;;;;;;;;;;;;;;;18.76;78.83;100975.25;1602819;88;20615;-82
2021/07/09 02:38:09;;;;;;;;;;;;;;;18.70;78.81;100975.09;1597561;88;20134;-82
2021/07/09 02:40:35;;;;;;;;;;;;;;;18.72;78.98;100981.54;1604555;88;20446;-82
2021/07/09 02:43:03;;;;;;;;;;;;;;;18.74;78.99;100979.24;1603878;88;20094;-82
2021/07/09 02:45:29;;;;;;;;;;;;;;;18.75;78.96;100980.95;1604357;88;20102;-82
2021/07/09 02:47:56;;;;;;;;;;;;;;;18.73;78.99;100980.16;1603239;88;20489;-82
2021/07/09 02:50:24;;;;;;;;;;;;;;;18.73;79.10;100987.17;1604103;88;20512;-82
2021/07/09 02:52:50;;;;;;;;;;;;;;;18.76;79.09;100987.03;1604377;88;20577;-82
2021/07/09 02:55:18;;;;;;;;;;;;;;;18.74;79.02;100976.63;1604493;88;20604;-82
2021/07/09 02:57:44;;;;;;;;;;;;;;;18.67;79.01;100963.89;1617662;88;20115;-82
2021/07/09 03:00:13;;;;;;;;;;;;;;;18.69;79.16;100960.75;1603982;88;20492;-83
2021/07/09 03:02:39;;;;;;;;;;;;;;;18.66;78.93;100957.80;1608569;88;20185;-82
2021/07/09 03:05:07;;;;;;;;;;;;;;;18.57;78.86;100949.00;1603852;87;20196;-83
2021/07/09 03:07:34;;;;;;;;;;;;;;;18.53;79.09;100943.51;1601400;88;20213;-83
2021/07/09 03:10:00;;;;;;;;;;;;;;;18.54;79.14;100943.90;1602547;88;20607;-82
2021/07/09 03:12:26;;;;;;;;;;;;;;;18.54;79.24;100936.05;1602243;88;20193;-82
2021/07/09 03:14:52;;;;;;;;;;;;;;;18.52;79.12;100920.86;1602636;88;20788;-82
2021/07/09 03:17:18;;;;;;;;;;;;;;;18.50;79.17;100913.52;1600884;88;20722;-82
2021/07/09 03:19:44;;;;;;;;;;;;;;;18.48;79.18;100916.20;1602351;88;20526;-82
2021/07/09 03:22:10;;;;;;;;;;;;;;;18.50;79.19;100911.75;1601569;88;20893;-82
2021/07/09 03:24:37;;;;;;;;;;;;;;;18.49;79.35;100906.12;1603954;88;20438;-82
2021/07/09 03:27:08;;;;;;;;;;;;;;;18.52;79.24;100909.06;1603280;88;20144;-82
2021/07/09 03:29:34;;;;;;;;;;;;;;;18.51;79.33;100910.84;1602328;88;20351;-82
2021/07/09 03:32:00;;;;;;;;;;;;;;;18.51;79.36;100917.38;1602589;88;20788;-82
2021/07/09 03:34:32;;;;;;;;;;;;;;;18.53;79.43;100926.02;1606037;88;20230;-82
2021/07/09 03:36:58;;;;;;;;;;;;;;;18.54;79.39;100929.50;1602638;88;20560;-82
2021/07/09 03:39:24;;;;;;;;;;;;;;;18.56;79.44;100932.05;1602226;88;20599;-82
2021/07/09 03:41:50;;;;;;;;;;;;;;;18.57;79.46;100937.67;1601124;88;20481;-83
2021/07/09 03:44:17;;;;;;;;;;;;;;;18.56;79.50;100934.67;1602107;88;20560;-82
2021/07/09 03:46:43;;;;;;;;;;;;;;;18.57;79.53;100941.14;1601790;88;20461;-83
2021/07/09 03:49:09;;;;;;;;;;;;;;;18.59;79.51;100943.23;1605416;88;20787;-82
2021/07/09 03:51:37;;;;;;;;;;;;;;;18.59;79.53;100935.37;1602102;88;20238;-82
2021/07/09 03:54:04;;;;;;;;;;;;;;;18.61;79.58;100923.56;1604453;88;20127;-82
2021/07/09 03:56:31;;;;;;;;;;;;;;;18.60;79.62;100926.64;1603774;88;20513;-82
2021/07/09 03:58:57;;;;;;;;;;;;;;;18.63;79.61;100919.11;1610122;88;20132;-82
2021/07/09 04:01:23;;;;;;;;;;;;;;;18.60;79.43;100904.80;1605780;87;20131;-83
2021/07/09 04:03:50;;;;;;;;;;;;;;;18.58;79.53;100901.40;1609068;88;20127;-82
2021/07/09 04:06:16;;;;;;;;;;;;;;;18.52;79.51;100898.13;1604036;88;20118;-82
2021/07/09 04:08:42;;;;;;;;;;;;;;;18.48;79.50;100899.19;1603792;88;22240;-82
2021/07/09 04:11:08;;;;;;;;;;;;;;;18.50;79.73;100892.11;1604032;88;20171;-82
2021/07/09 04:13:34;;;;;;;;;;;;;;;18.58;79.78;100909.26;1604168;88;20114;-82
2021/07/09 04:16:01;;;;;;;;;;;;;;;18.61;79.80;100915.24;1608373;87;20538;-82
2021/07/09 04:18:27;;;;;;;;;;;;;;;18.67;79.83;100912.81;1629516;86;20136;-82
2021/07/09 04:20:53;;;;;;;;;;;;;;;18.67;79.57;100918.91;1628837;87;20551;-82
2021/07/09 04:23:19;;;;;;;;;;;;;;;18.60;79.63;100923.14;1626485;87;20499;-82
2021/07/09 04:25:52;;;;;;;;;;;;;;;18.61;79.72;100919.17;1626342;87;20125;-82
2021/07/09 04:28:18;;;;;;;;;;;;;;;18.66;79.88;100926.83;1626183;87;20159;-82
2021/07/09 04:30:44;;;;;;;;;;;;;;;18.70;79.88;100934.48;1626324;87;20456;-82
2021/07/09 04:33:10;;;;;;;;;;;;;;;18.76;79.95;100946.42;1625894;87;20508;-82
2021/07/09 04:35:36;;;;;;;;;;;;;;;18.84;79.94;100958.73;1601078;87;20154;-83
2021/07/09 04:38:05;;;;;;;;;;;;;;;18.88;79.92;100967.30;1625569;87;20132;-82
2021/07/09 04:40:31;;;;;;;;;;;;;;;18.88;79.86;100971.23;1625954;87;20159;-82
2021/07/09 04:42:58;;;;;;;;;;;;;;;18.88;79.87;100985.19;1626122;87;20108;-83
2021/07/09 04:45:24;;;;;;;;;;;;;;;18.92;79.90;100990.69;1625601;87;20141;-82
2021/07/09 04:47:50;;;;;;;;;;;;;;;18.98;79.94;100989.56;1625948;87;20120;-82
2021/07/09 04:50:19;;;;;;;;;;;;;;;19.01;79.87;100993.36;1625198;87;20100;-82
2021/07/09 04:52:45;;;;;;;;;;;;;;;18.97;79.83;101018.84;1628206;87;20159;-82
2021/07/09 04:55:12;;;;;;;;;;;;;;;19.00;79.95;101047.55;1624856;87;20404;-82
2021/07/09 04:57:39;;;;;;;;;;;;;;;19.03;79.96;101050.03;1623991;87;20104;-82
2021/07/09 05:00:06;;;;;;;;;;;;;;;19.09;80.00;101050.22;1625761;87;20161;-82
2021/07/09 05:02:32;;;;;;;;;;;;;;;19.11;79.96;101042.69;1626807;87;20133;-82
2021/07/09 05:04:58;;;;;;;;;;;;;;;19.11;79.79;101036.59;1628912;87;20149;-82
2021/07/09 05:07:24;;;;;;;;;;;;;;;19.11;79.94;101037.44;1625221;86;20590;-82
2021/07/09 05:09:50;;;;;;;;;;;;;;;19.11;79.89;101047.08;1624843;87;20186;-82
2021/07/09 05:12:16;;;;;;;;;;;;;;;19.10;79.78;101059.79;1623095;87;20335;-82
2021/07/09 05:14:42;;;;;;;;;;;;;;;19.06;79.88;101053.83;1623124;87;20222;-82
2021/07/09 05:17:10;;;;;;;;;;;;;;;19.04;79.86;101060.91;1618558;87;20193;-82
2021/07/09 05:19:36;;;;;;;;;;;;;;;19.08;80.03;101066.87;1614871;87;20267;-82
2021/07/09 05:22:03;;;;;;;;;;;;;;;19.08;80.00;101062.48;1613240;88;20264;-82
2021/07/09 05:24:29;;;;;;;;;;;;;;;19.14;80.12;101052.19;1612110;88;20204;-82
2021/07/09 05:26:55;;;;;;;;;;;;;;;19.18;80.08;101048.50;1611755;88;20120;-82
2021/07/09 05:29:24;;;;;;;;;;;;;;;19.20;79.96;101040.11;1610888;88;20197;-82
2021/07/09 05:31:51;;;;;;;;;;;;;;;19.20;80.04;101021.76;1609672;87;20187;-82
2021/07/09 05:34:17;;;;;;;;;;;;;;;19.19;80.09;101013.50;1613939;88;20133;-82
2021/07/09 05:36:46;;;;;;;;;;;;;;;19.24;80.12;101022.44;1615810;88;20122;-82
2021/07/09 05:39:15;;;;;;;;;;;;;;;19.22;80.01;101024.31;1615543;88;20100;-82
2021/07/09 05:41:40;;;;;;;;;;;;;;;19.22;80.08;101035.65;1611263;88;20129;-82
2021/07/09 05:44:06;;;;;;;;;;;;;;;19.19;79.86;101050.20;1616622;87;20221;-82
2021/07/09 05:46:33;;;;;;;;;;;;;;;19.13;79.95;101051.33;1610316;88;20866;-82
2021/07/09 05:48:59;;;;;;;;;;;;;;;19.14;80.12;101044.31;1611819;88;20105;-82
2021/07/09 05:51:25;;;;;;;;;;;;;;;19.16;80.08;101034.16;1616273;88;20159;-82
2021/07/09 05:53:50;;;;;;;;;;;;;;;19.15;80.05;101043.40;1617174;88;20163;-82
2021/07/09 05:56:16;;;;;;;;;;;;;;;19.15;80.12;101062.59;1609330;87;20163;-82
2021/07/09 05:58:43;;;;;;;;;;;;;;;19.14;80.11;101064.83;1616160;88;20125;-82
2021/07/09 06:01:09;;;;;;;;;;;;;;;19.16;80.20;101061.68;1616721;87;20126;-82
2021/07/09 06:03:35;;;;;;;;;;;;;;;19.18;80.25;101055.91;1613772;86;20132;-82
2021/07/09 06:06:01;;;;;;;;;;;;;;;19.21;80.22;101042.27;1616790;88;20104;-83
2021/07/09 06:08:29;;;;;;;;;;;;;;;19.18;80.15;101025.76;1615009;88;20228;-82
2021/07/09 06:10:56;;;;;;;;;;;;;;;19.09;80.01;101009.59;1612794;88;20113;-82
2021/07/09 06:13:22;;;;;;;;;;;;;;;19.01;80.14;101028.73;1616334;88;20132;-82
2021/07/09 06:15:48;;;;;;;;;;;;;;;19.00;80.09;101048.86;1618373;88;20180;-83
2021/07/09 06:18:14;;;;;;;;;;;;;;;18.96;80.24;101052.53;1614545;88;20155;-83
2021/07/09 06:20:40;;;;;;;;;;;;;;;18.99;80.40;101037.13;1614843;88;20150;-83
2021/07/09 06:23:06;;;;;;;;;;;;;;;19.02;80.50;101015.56;1614660;88;20101;-82
2021/07/09 06:25:33;;;;;;;;;;;;;;;19.05;80.53;101014.13;1615765;88;20116;-82
2021/07/09 06:27:59;;;;;;;;;;;;;;;19.07;80.44;101012.28;1616516;88;20141;-82
2021/07/09 06:30:25;;;;;;;;;;;;;;;19.06;80.43;101016.28;1616229;88;20213;-82
2021/07/09 06:32:53;;;;;;;;;;;;;;;19.06;80.52;101026.31;1619050;88;20098;-82
2021/07/09 06:35:20;;;;;;;;;;;;;;;19.10;80.52;101037.51;1615269;86;20105;-82
2021/07/09 06:37:45;;;;;;;;;;;;;;;19.10;80.56;101043.60;1610693;88;20167;-82
2021/07/09 06:40:21;;;;;;;;;;;;;;;19.16;80.59;101045.09;1616333;88;20125;-83
2021/07/09 06:42:47;;;;;;;;;;;;;;;19.18;80.59;101032.77;1608693;88;20101;-82
2021/07/09 06:45:13;;;;;;;;;;;;;;;19.22;80.62;101019.06;1614734;88;20125;-82
2021/07/09 06:47:39;;;;;;;;;;;;;;;19.25;80.57;101009.26;1616006;88;20121;-82
2021/07/09 06:50:06;;;;;;;;;;;;;;;19.25;80.52;100995.30;1616481;88;20092;-82
2021/07/09 06:52:32;;;;;;;;;;;;;;;19.26;80.62;100982.58;1616315;88;20141;-82
2021/07/09 06:54:58;;;;;;;;;;;;;;;19.27;80.53;100954.98;1615487;88;20212;-82
2021/07/09 06:57:24;;;;;;;;;;;;;;;19.26;80.45;100920.50;1613120;88;20125;-83
2021/07/09 06:59:52;;;;;;;;;;;;;;;19.28;80.47;100898.14;1613170;88;20121;-83
2021/07/09 07:02:19;;;;;;;;;;;;;;;19.31;80.47;100870.47;1615841;87;20223;-83
2021/07/09 07:04:46;;;;;;;;;;;;;;;19.32;80.51;100851.19;1613561;88;20102;-83
2021/07/09 07:07:12;;;;;;;;;;;;;;;19.34;80.52;100833.61;1611050;88;20162;-83
2021/07/09 07:09:38;;;;;;;;;;;;;;;19.34;80.52;100809.55;1615528;88;20258;-83
2021/07/09 07:12:07;;;;;;;;;;;;;;;19.32;80.46;100794.34;1615676;87;20178;-83
2021/07/09 07:14:35;;;;;;;;;;;;;;;19.37;80.71;100784.48;1615577;88;20097;-83
2021/07/09 07:17:01;;;;;;;;;;;;;;;19.43;80.53;100778.08;1610085;87;20114;-83
2021/07/09 07:19:27;;;;;;;;;;;;;;;19.46;80.65;100766.13;1613120;88;20109;-84
2021/07/09 07:21:54;;;;;;;;;;;;;;;19.50;80.71;100751.94;1611772;88;20093;-83
2021/07/09 07:24:20;;;;;;;;;;;;;;;19.58;80.77;100757.67;1616580;88;20137;-83
2021/07/09 07:26:46;;;;;;;;;;;;;;;19.66;80.78;100765.16;1611373;87;20109;-83
2021/07/09 07:29:12;;;;;;;;;;;;;;;19.78;80.88;100757.94;1618068;87;20432;-83
2021/07/09 07:31:38;;;;;;;;;;;;;;;19.87;80.79;100738.23;1613610;87;20133;-83
2021/07/09 07:34:04;;;;;;;;;;;;;;;19.94;80.66;100729.12;1616307;88;20136;-83
2021/07/09 07:36:33;;;;;;;;;;;;;;;19.96;80.70;100724.17;1613351;87;20739;-83
2021/07/09 07:38:59;;;;;;;;;;;;;;;20.00;80.71;100713.05;1615129;88;20854;-83
2021/07/09 07:41:26;;;;;;;;;;;;;;;20.02;80.66;100694.97;1617011;88;20129;-83
2021/07/09 07:43:53;;;;;;;;;;;;;;;20.05;80.68;100682.14;1614046;87;20117;-83
2021/07/09 07:46:19;;;;;;;;;;;;;;;20.06;80.45;100676.81;1615122;88;20164;-83
2021/07/09 07:48:45;;;;;;;;;;;;;;;20.06;80.62;100685.16;1614298;87;20529;-83
2021/07/09 07:51:14;;;;;;;;;;;;;;;20.21;81.00;100684.78;1614754;88;20125;-83
2021/07/09 07:53:40;;;;;;;;;;;;;;;20.55;81.10;100665.38;1611178;88;20101;-83
2021/07/09 07:56:07;;;;;;;;;;;;;;;20.82;80.88;100677.77;1610310;86;20124;-83
2021/07/09 07:58:35;;;;;;;;;;;;;;;21.03;80.87;100667.80;1617146;87;20125;-83
2021/07/09 08:01:01;;;;;;;;;;;;;;;21.37;81.09;100666.66;1616013;88;20116;-83
2021/07/09 08:03:27;;;;;;;;;;;;;;;21.71;80.97;100665.45;1613514;87;20244;-83
2021/07/09 08:05:55;;;;;;;;;;;;;;;21.92;80.51;100667.67;1585933;88;20169;-83
2021/07/09 08:08:21;;;;;;;;;;;;;;;21.95;80.14;100667.02;1614831;87;20164;-83
2021/07/09 08:10:48;;;;;;;;;;;;;;;22.14;80.54;100668.06;1618097;86;20184;-83
2021/07/09 08:13:14;;;;;;;;;;;;;;;22.38;80.57;100677.02;1616489;88;20117;-83
2021/07/09 08:15:40;;;;;;;;;;;;;;;22.56;80.16;100694.75;1616179;86;20109;-83
2021/07/09 08:18:06;;;;;;;;;;;;;;;22.53;79.92;100711.23;1607155;88;20113;-83
2021/07/09 08:20:34;;;;;;;;;;;;;;;22.53;79.99;100716.03;1617073;88;20542;-83
2021/07/09 08:23:00;;;;;;;;;;;;;;;22.61;80.02;100726.08;1620055;87;20519;-83
2021/07/09 08:25:26;;;;;;;;;;;;;;;22.89;80.59;100748.41;1617386;88;20152;-84
2021/07/09 08:27:53;;;;;;;;;;;;;;;23.06;79.86;100769.73;1623121;87;20137;-83
2021/07/09 08:30:19;;;;;;;;;;;;;;;22.97;79.66;100765.90;1617265;88;20125;-82
2021/07/09 08:32:45;;;;;;;;;;;;;;;22.83;79.60;100767.77;1616622;88;20109;-83
2021/07/09 08:35:12;;;;;;;;;;;;;;;22.77;79.98;100776.41;1617032;88;20137;-83
2021/07/09 08:37:38;;;;;;;;;;;;;;;22.82;79.87;100778.79;1620260;88;20113;-82
2021/07/09 08:40:05;;;;;;;;;;;;;;;23.04;80.38;100786.13;1616741;87;20124;-82
2021/07/09 08:42:32;;;;;;;;;;;;;;;23.18;80.12;100793.99;1613596;87;20105;-82
2021/07/09 08:44:58;;;;;;;;;;;;;;;23.33;80.25;100804.02;1615928;87;20223;-82
2021/07/09 08:47:27;;;;;;;;;;;;;;;23.37;79.96;100798.43;1613245;87;20187;-82
2021/07/09 08:49:55;;;;;;;;;;;;;;;23.43;79.88;100808.55;1610258;88;20291;-82
2021/07/09 08:52:21;;;;;;;;;;;;;;;23.44;79.88;100802.33;1610804;88;20121;-82
2021/07/09 08:54:47;;;;;;;;;;;;;;;23.51;79.80;100805.88;1616808;88;20183;-82
2021/07/09 08:57:16;;;;;;;;;;;;;;;23.59;79.93;100812.84;1617426;87;20105;-81
2021/07/09 08:59:42;;;;;;;;;;;;;;;23.60;79.82;100816.70;1617881;88;20128;-82
2021/07/09 09:02:08;;;;;;;;;;;;;;;23.58;79.73;100801.91;1604828;88;20101;-82
2021/07/09 09:04:36;;;;;;;;;;;;;;;23.46;79.41;100818.06;1616469;88;20141;-82
2021/07/09 09:07:07;;;;;;;;;;;;;;;23.37;79.75;100843.30;1610238;87;20171;-82
2021/07/09 09:09:39;;;;;;;;;;;;;;;23.37;79.82;100865.73;1617248;88;20091;-82
2021/07/09 09:12:13;;;;;;;;;;;;;;;23.28;79.73;100883.48;1615917;87;20125;-84
2021/07/09 09:14:45;;;;;;;;;;;;;;;23.13;79.57;100899.44;1616295;88;20527;-85
2021/07/09 09:17:27;;;;;;;;;;;;;;;22.96;79.98;100905.30;1607492;88;20149;-85
2021/07/09 09:20:13;;;;;;;;;;;;;;;22.85;79.96;100889.34;1614504;88;20100;-84
2021/07/09 09:22:52;;;;;;;;;;;;;;;22.69;79.96;100883.30;1613324;87;20172;-85
2021/07/09 09:25:21;;;;;;;;;;;;;;;22.63;80.05;100877.93;1612829;87;20401;-85
2021/07/09 09:28:05;;;;;;;;;;;;;;;22.57;79.94;100876.98;1609019;88;20093;-85
2021/07/09 09:30:32;;;;;;;;;;;;;;;22.48;80.03;100873.60;1612638;88;20555;-84
2021/07/09 09:33:00;;;;;;;;;;;;;;;22.44;80.22;100853.64;1617326;88;20112;-84
2021/07/09 09:35:29;;;;;;;;;;;;;;;22.36;79.96;100829.08;1610453;87;20105;-86
2021/07/09 09:37:59;;;;;;;;;;;;;;;22.27;80.01;100812.55;1611442;87;20529;-85
2021/07/09 09:40:26;;;;;;;;;;;;;;;22.26;80.40;100817.92;1615123;88;20117;-84
2021/07/09 09:42:53;;;;;;;;;;;;;;;22.28;80.30;100850.28;1615787;88;20093;-84
2021/07/09 09:45:21;;;;;;;;;;;;;;;22.21;80.23;100874.84;1616190;87;20101;-85
2021/07/09 09:47:47;;;;;;;;;;;;;;;22.16;80.26;100887.44;1607626;88;20111;-84
2021/07/09 09:50:19;;;;;;;;;;;;;;;22.16;80.52;100875.58;1620037;87;20116;-84
2021/07/09 09:52:48;;;;;;;;;;;;;;;22.18;80.61;100862.31;1611220;87;20112;-84
2021/07/09 09:55:23;;;;;;;;;;;;;;;22.25;80.57;100850.47;1615051;88;20137;-85
2021/07/09 09:58:10;;;;;;;;;;;;;;;22.26;80.46;100849.06;1615848;88;20144;-84
2021/07/09 10:00:36;;;;;;;;;;;;;;;22.16;79.95;100850.55;1614875;88;20169;-84
2021/07/09 10:03:04;;;;;;;;;;;;;;;22.06;80.19;100867.37;1615095;87;20109;-84
2021/07/09 10:05:39;;;;;;;;;;;;;;;22.07;80.43;100869.55;1613030;88;20117;-84
2021/07/09 10:08:11;;;;;;;;;;;;;;;22.01;80.14;100848.37;1614446;88;20133;-84
2021/07/09 10:10:37;;;;;;;;;;;;;;;21.99;80.42;100858.58;1611418;88;20137;-85
2021/07/09 10:13:04;;;;;;;;;;;;;;;22.00;80.48;100882.66;1616028;88;20100;-84
2021/07/09 10:15:31;;;;;;;;;;;;;;;22.01;80.58;100901.04;1615190;88;20121;-84
2021/07/09 10:17:58;;;;;;;;;;;;;;;22.01;80.67;100895.77;1616439;88;20147;-84
2021/07/09 10:20:24;;;;;;;;;;;;;;;22.07;80.83;100886.66;1617105;87;20113;-84
2021/07/09 10:22:52;;;;;;;;;;;;;;;22.09;80.69;100876.88;1617165;87;20112;-84
2021/07/09 10:25:19;;;;;;;;;;;;;;;22.10;80.76;100868.05;1613202;87;20125;-84
2021/07/09 10:27:46;;;;;;;;;;;;;;;22.12;80.77;100864.84;1618018;87;20141;-84
2021/07/09 10:30:13;;;;;;;;;;;;;;;22.15;80.66;100873.88;1614635;88;20603;-84
2021/07/09 10:32:46;;;;;;;;;;;;;;;22.13;80.61;100871.81;1622970;87;20133;-84
2021/07/09 10:35:34;;;;;;;;;;;;;;;22.16;80.68;100858.45;1617900;88;20113;-84
2021/07/09 10:38:22;;;;;;;;;;;;;;;22.19;80.75;100840.30;1574673;89;20137;-83
2021/07/09 10:40:47;;;;;;;;;;;;;;;22.28;80.82;100834.48;1577521;90;20448;-84
2021/07/09 10:43:17;;;;;;;;;;;;;;;22.36;80.61;100837.45;1616004;88;20104;-84
2021/07/09 10:45:43;;;;;;;;;;;;;;;22.42;80.74;100823.91;1617421;88;20140;-84
2021/07/09 10:48:17;;;;;;;;;;;;;;;22.50;80.60;100833.98;1617251;87;20097;-84
2021/07/09 10:50:50;;;;;;;;;;;;;;;22.51;80.52;100843.10;1617363;87;20142;-84
2021/07/09 10:53:25;;;;;;;;;;;;;;;22.62;80.53;100835.38;1607450;88;20111;-84
2021/07/09 10:56:05;;;;;;;;;;;;;;;22.70;80.53;100841.49;1614436;88;20137;-84
2021/07/09 10:58:42;;;;;;;;;;;;;;;22.75;80.31;100841.58;1612740;88;20137;-82
2021/07/09 11:01:16;;;;;;;;;;;;;;;22.78;80.29;100856.36;1611433;88;20116;-80
2021/07/09 11:03:57;;;;;;;;;;;;;;;22.76;80.26;100863.52;1617456;87;20133;-79
2021/07/09 11:06:36;;;;;;;;;;;;;;;22.74;80.20;100849.11;1541411;91;20205;-79
2021/07/09 11:09:10;;;;;;;;;;;;;;;22.74;80.28;100857.02;1543472;91;20137;-79
2021/07/09 11:11:53;;;;;;;;;;;;;;;22.71;80.19;100878.77;1544205;91;20170;-79
2021/07/09 11:14:36;;;;;;;;;;;;;;;22.63;79.90;100825.21;1541093;91;20153;-79
2021/07/09 11:17:16;;;;;;;;;;;;;;;22.56;80.05;100765.06;1542897;91;20222;-79
2021/07/09 11:19:42;;;;;;;;;;;;;;;22.51;80.08;100836.98;1541112;91;20177;-79
2021/07/09 11:22:10;;;;;;;;;;;;;;;22.51;80.25;100886.59;1540419;91;20226;-79
2021/07/09 11:24:56;;;;;;;;;;;;;;;22.50;80.11;100903.34;1519038;93;38304;-79
2021/07/09 11:27:19;;;;;;;;;;;;;;;22.46;80.10;100899.20;1542956;91;20110;-79
2021/07/09 11:29:46;;;;;;;;;;;;;;;22.40;80.13;100891.67;1540669;91;20484;-80
2021/07/09 11:32:18;;;;;;;;;;;;;;;22.41;80.20;100867.02;1541038;91;20205;-79
2021/07/09 11:34:46;;;;;;;;;;;;;;;22.46;80.31;100851.77;1539815;91;20460;-79
2021/07/09 11:37:21;;;;;;;;;;;;;;;22.56;80.28;100834.91;1540686;91;20200;-79
2021/07/09 11:39:53;;;;;;;;;;;;;;;22.66;80.40;100826.81;1515257;93;20231;-79
2021/07/09 11:42:20;;;;;;;;;;;;;;;22.68;80.01;100782.27;1527847;92;20455;-79
2021/07/09 11:44:56;;;;;;;;;;;;;;;22.71;80.05;100751.76;1597352;88;20144;-79
2021/07/09 11:47:25;;;;;;;;;;;;;;;22.73;79.96;100816.25;1599457;88;20733;-79
2021/07/09 11:50:00;;;;;;;;;;;;;;;22.78;80.13;100863.83;1594321;88;20151;-79
2021/07/09 11:52:34;;;;;;;;;;;;;;;22.87;80.09;100859.77;1604011;88;20110;-79
2021/07/09 11:55:05;;;;;;;;;;;;;;;22.97;79.92;100829.67;1593157;88;20493;-78
2021/07/09 11:57:35;;;;;;;;;;;;;;;23.04;79.91;100829.65;1596914;88;20450;-78
2021/07/09 12:00:05;;;;;;;;;;;;;;;23.09;79.80;100821.81;1596692;88;20328;-79
2021/07/09 12:02:31;;;;;;;;;;;;;;;23.09;79.60;100786.20;1600703;88;20197;-79
2021/07/09 12:05:02;;;;;;;;;;;;;;;23.04;79.46;100765.03;1595319;88;20229;-79
2021/07/09 12:07:31;;;;;;;;;;;;;;;22.98;79.63;100779.45;1597234;88;20506;-79
2021/07/09 12:10:04;;;;;;;;;;;;;;;23.01;79.66;100762.59;1597576;88;20232;-79
2021/07/09 12:12:38;;;;;;;;;;;;;;;22.99;79.45;100772.39;1600818;88;20536;-79
2021/07/09 12:15:18;;;;;;;;;;;;;;;23.08;79.62;100804.77;1614614;88;20421;-79
2021/07/09 12:17:59;;;;;;;;;;;;;;;23.23;79.82;100822.23;1613030;88;20116;-79
2021/07/09 12:20:49;;;;;;;;;;;;;;;23.45;79.79;100817.69;1612809;88;20149;-79
2021/07/09 12:23:19;;;;;;;;;;;;;;;23.62;79.61;100823.20;1602293;87;20174;-78
2021/07/09 12:25:54;;;;;;;;;;;;;;;23.72;79.41;100785.98;1612335;87;21024;-78
2021/07/09 12:28:26;;;;;;;;;;;;;;;23.74;79.22;100780.97;1613981;88;20149;-78
2021/07/09 12:30:56;;;;;;;;;;;;;;;23.69;79.18;100755.35;1616423;88;20112;-78
2021/07/09 12:33:26;;;;;;;;;;;;;;;23.69;79.07;100763.75;1617721;87;20100;-78
2021/07/09 12:36:04;;;;;;;;;;;;;;;23.65;79.04;100751.23;1612932;88;20128;-78
2021/07/09 12:38:32;;;;;;;;;;;;;;;23.61;79.01;100761.63;1613044;88;20121;-78
2021/07/09 12:41:07;;;;;;;;;;;;;;;23.63;79.21;100732.48;1616127;87;20097;-78